Lady Jasmine — 9LD2327 — position and weather

sailwx.info

Track history (hours):
 
Tides and Currents Weather Stations Pressure Air Temp Water Temp Dewpoint Dewpoint Depression Visibility Wind Speed Wind Dir Waves Ship Positions

Lady Jasmine

Last reported at 2017-Sep-17 04:00 UTC. Time now 2017-Sep-24 08:54 UTC.
Position N 41°43' E 017°44'.

Length 106 m; draft 7.5 m.

Type: Cargo ship. MMSI: 667005027.

Date/timePositionNaut miles runAvg speedWind from/ knotsBaromVisibWave heightAir tempDewpointWater temp
2017-Sep-17 04:00N 41°43' E 017°44'711.4
2017-Sep-17 03:25N 41°38' E 017°49'511.6
2017-Sep-17 03:00N 41°34' E 017°53'1711.7
2017-Sep-17 01:32N 41°20' E 018°07'111.4
2017-Sep-17 01:28N 41°20' E 018°08'611.4
2017-Sep-17 00:56N 41°15' E 018°13'511.4
2017-Sep-17 00:30N 41°11' E 018°17'611.5
2017-Sep-17 00:00N 41°07' E 018°22'611.4
2017-Sep-16 23:30N 41°02' E 018°27'1411.4
2017-Sep-16 22:19N 40°51' E 018°36'411.4
2017-Sep-16 21:56N 40°47' E 018°38'511.3
2017-Sep-16 21:30N 40°43' E 018°41'611.5
2017-Sep-16 21:00N 40°37' E 018°44'611.6
2017-Sep-16 20:30N 40°32' E 018°47'711.3
2017-Sep-16 19:51N 40°25' E 018°52'411.2
2017-Sep-16 19:30N 40°22' E 018°54'611.2
2017-Sep-16 19:00N 40°17' E 018°57'611.3
2017-Sep-16 18:28N 40°11' E 019°00'2111.3
2017-Sep-16 16:39N 39°53' E 019°12'211.4
2017-Sep-16 16:29N 39°51' E 019°13'1811.2
2017-Sep-16 14:52N 39°37' E 019°28'11310.5
2017-Sep-16 04:09N 38°14' E 021°07'  
2017-Sep-09 07:24N 37°52' E 015°54'512.1
2017-Sep-09 06:59N 37°52' E 015°47'612.2
2017-Sep-09 06:29N 37°55' E 015°40'611.7
2017-Sep-09 05:59N 37°59' E 015°35'611.5
2017-Sep-09 05:29N 38°05' E 015°34'611.6
2017-Sep-09 05:00N 38°10' E 015°35'5 9.8
2017-Sep-09 04:30N 38°15' E 015°38'5 9.4
2017-Sep-09 04:00N 38°19' E 015°40'611.6
2017-Sep-09 03:30N 38°25' E 015°38'612.1
2017-Sep-09 02:58N 38°31' E 015°34'612.7
2017-Sep-09 02:29N 38°36' E 015°31'612.5
2017-Sep-09 02:00N 38°42' E 015°28'  
Track history (hours):
 
Tides and Currents Weather Stations Pressure Air Temp Water Temp Dewpoint Dewpoint Depression Visibility Wind Speed Wind Dir Waves Ship Positions

Lady Jasmine

Last reported at 2017-Sep-17 04:00 UTC. Time now 2017-Sep-24 08:54 UTC.
Position N 41°43' E 017°44'.

Length 106 m; draft 7.5 m.

Type: Cargo ship. MMSI: 667005027.

Date/timePositionNaut miles runAvg speedWind from/ knotsBaromVisibWave heightAir tempDewpointWater temp
2017-Sep-17 04:00N 41°43' E 017°44'711.4
2017-Sep-17 03:25N 41°38' E 017°49'511.6
2017-Sep-17 03:00N 41°34' E 017°53'1711.7
2017-Sep-17 01:32N 41°20' E 018°07'111.4
2017-Sep-17 01:28N 41°20' E 018°08'611.4
2017-Sep-17 00:56N 41°15' E 018°13'511.4
2017-Sep-17 00:30N 41°11' E 018°17'611.5
2017-Sep-17 00:00N 41°07' E 018°22'611.4
2017-Sep-16 23:30N 41°02' E 018°27'1411.4
2017-Sep-16 22:19N 40°51' E 018°36'411.4
2017-Sep-16 21:56N 40°47' E 018°38'511.3
2017-Sep-16 21:30N 40°43' E 018°41'611.5
2017-Sep-16 21:00N 40°37' E 018°44'611.6
2017-Sep-16 20:30N 40°32' E 018°47'711.3
2017-Sep-16 19:51N 40°25' E 018°52'411.2
2017-Sep-16 19:30N 40°22' E 018°54'611.2
2017-Sep-16 19:00N 40°17' E 018°57'611.3
2017-Sep-16 18:28N 40°11' E 019°00'2111.3
2017-Sep-16 16:39N 39°53' E 019°12'211.4
2017-Sep-16 16:29N 39°51' E 019°13'1811.2
2017-Sep-16 14:52N 39°37' E 019°28'11310.5
2017-Sep-16 04:09N 38°14' E 021°07'  
2017-Sep-09 07:24N 37°52' E 015°54'512.1
2017-Sep-09 06:59N 37°52' E 015°47'612.2
2017-Sep-09 06:29N 37°55' E 015°40'611.7
2017-Sep-09 05:59N 37°59' E 015°35'611.5
2017-Sep-09 05:29N 38°05' E 015°34'611.6
2017-Sep-09 05:00N 38°10' E 015°35'5 9.8
2017-Sep-09 04:30N 38°15' E 015°38'5 9.4
2017-Sep-09 04:00N 38°19' E 015°40'611.6
2017-Sep-09 03:30N 38°25' E 015°38'612.1
2017-Sep-09 02:58N 38°31' E 015°34'612.7
2017-Sep-09 02:29N 38°36' E 015°31'612.5
2017-Sep-09 02:00N 38°42' E 015°28'  

Dump ship's entire track history